Temp     Hi    Low   Out    Dew  Wind  Wind   Wind    Hi    Hi   Wind   Heat    THW   THSW                Rain  Solar   Solar Hi Solar   UV    UV    Hi     Heat    Cool    In     In    In     In           Wind  Wind    ISS   Arc.
  Date    Time     Out   Temp   Temp   Hum    Pt. Speed   Dir    Run Speed   Dir  Chill  Index  Index  Index   Bar    Rain  Rate   Rad.  Energy    Rad.  Index  Dose   UV     D-D     D-D    Temp   Hum    Dew   Heat     ET   Samp   Tx   Recept  Int.
---------------------------------------------------------------------------------------------------------------------------------------------------------------------------------------------------------------------------------------------------------
15/02/19   0.15   12.6   12.7   12.5    70    7.2  14.5     N   3.62  29.0     N   10.7   12.1   10.3    8.6   587.5  0.00   0.0     0     0.00      0     0.0  0.00   0.0   0.060   0.000   13.6    57    5.2   12.7    0.00   336    1     98.2   15 
15/02/19   0.30   12.6   12.6   12.4    71    7.4  14.5     N   3.62  30.6     N   10.7   12.2   10.3    8.7   587.5  0.00   0.0     0     0.00      0     0.0  0.00   0.0   0.060   0.000   13.6    58    5.4   12.8    0.00   337    1     98.5   15 
15/02/19   0.45   12.6   12.6   12.4    72    7.7  14.5   NNE   3.62  30.6   NNW   10.8   12.2   10.4    8.7   587.5  0.00   0.0     0     0.00      0     0.0  0.00   0.0   0.060   0.000   13.6    59    5.7   12.8    0.00   329    1     96.2   15 
15/02/19   1.00   12.4   12.7   12.4    74    7.9  16.1     N   4.02  30.6   NNE   10.2   12.2    9.9    8.4   581.5  0.00   0.0     0     0.00      0     0.0  0.00   0.0   0.061   0.000   13.6    59    5.7   12.8    0.05   327    1     95.6   15 
15/02/19   1.15   12.4   12.6   12.4    76    8.3  16.1   NNW   4.02  30.6   NNW   10.2   12.1    9.9    8.3   581.5  0.00   0.0     0     0.00      0     0.0  0.00   0.0   0.062   0.000   13.6    60    5.9   12.8    0.00   334    1     97.7   15 
15/02/19   1.30   12.3   12.4   12.3    77    8.4  16.1   NNW   4.02  32.2     N   10.1   12.1    9.9    8.3   581.5  0.00   0.0     0     0.00      0     0.0  0.00   0.0   0.062   0.000   13.6    60    5.9   12.8    0.00   322    1     94.2   15 
15/02/19   1.45   12.2   12.3   12.2    78    8.5  12.9   NNW   3.22  32.2   NNE   10.7   12.0   10.5    8.8   581.5  0.00   0.0     0     0.00      0     0.0  0.00   0.0   0.064   0.000   13.6    61    6.2   12.9    0.00   339    1     99.1   15 
15/02/19   2.00   12.3   12.3   12.2    79    8.7  14.5     N   3.62  32.2   NNW   10.4   12.1   10.2    8.6   581.5  0.00   0.0     0     0.00      0     0.0  0.00   0.0   0.063   0.000   13.6    61    6.2   12.9    0.05   331    1     96.8   15 
15/02/19   2.15   12.3   12.3   12.3    79    8.8  16.1   NNE   4.02  32.2     N   10.1   12.2    9.9    8.4   581.5  0.00   0.0     0     0.00      0     0.0  0.00   0.0   0.062   0.000   13.6    62    6.4   12.9    0.00   339    1     99.1   15 
15/02/19   2.30   12.2   12.3   12.1    79    8.7  14.5     N   3.62  33.8     N   10.3   12.1   10.2    8.6   581.5  0.00   0.0     0     0.00      0     0.0  0.00   0.0   0.064   0.000   13.6    62    6.4   12.9    0.00   342    1    100.0   15 
15/02/19   2.45   12.3   12.3   12.0    77    8.4  14.5     N   3.62  33.8    NE   10.4   12.1   10.2    8.6   581.5  0.00   0.0     0     0.00      0     0.0  0.00   0.0   0.063   0.000   13.6    63    6.6   12.9    0.00   337    1     98.5   15 
15/02/19   3.00   12.2   12.3   12.2    71    7.1  16.1     N   4.02  30.6     N   10.0   11.8    9.6    8.0   581.5  0.00   0.0     0     0.00      0     0.0  0.00   0.0   0.064   0.000   13.6    63    6.6   12.9    0.05   342    1    100.0   15 
15/02/19   3.15   12.3   12.3   12.2    68    6.6  14.5   NNE   3.62  29.0   NNE   10.4   11.9   10.0    8.3   581.5  0.00   0.0     0     0.00      0     0.0  0.00   0.0   0.062   0.000   13.6    62    6.4   12.9    0.00   339    1     99.1   15 
15/02/19   3.30   12.2   12.4   12.2    71    7.1  14.5   NNE   3.62  30.6    NE   10.3   11.8    9.9    8.2   581.5  0.00   0.0     0     0.00      0     0.0  0.00   0.0   0.064   0.000   13.4    62    6.3   12.8    0.00   338    1     98.8   15 
15/02/19   3.45   12.3   12.3   12.1    69    6.8  12.9   NNE   3.22  29.0    NE   10.8   11.8   10.3    8.6   581.5  0.00   0.0     0     0.00      0     0.0  0.00   0.0   0.063   0.000   13.4    61    6.1   12.8    0.00   338    1     98.8   15 
15/02/19   4.00   12.4   12.4   12.3    65    6.0  14.5   NNE   3.62  32.2     N   10.6   11.9   10.1    8.3   581.5  0.00   0.0     0     0.00      0     0.0  0.00   0.0   0.061   0.000   13.4    61    6.1   12.8    0.05   345    1    100.0   15 
15/02/19   4.15   12.4   12.6   12.3    65    6.0  16.1   NNE   4.02  29.0   NNE   10.2   11.8    9.6    7.9   581.5  0.00   0.0     0     0.00      0     0.0  0.00   0.0   0.062   0.000   13.4    60    5.8   12.7    0.00   345    1    100.0   15 
15/02/19   4.30   12.5   12.6   12.4    68    6.8  16.1   NNE   4.02  29.0   NNE   10.3   12.1    9.9    8.3   581.5  0.00   0.0     0     0.00      0     0.0  0.00   0.0   0.061   0.000   13.4    60    5.8   12.7    0.00   337    1     98.5   15 
15/02/19   4.45   12.4   12.6   12.3    70    7.1  16.1   NNE   4.02  27.4     N   10.2   12.0    9.8    8.2   581.5  0.00   0.0     0     0.00      0     0.0  0.00   0.0   0.062   0.000   13.4    60    5.8   12.7    0.00   338    1     98.8   15 
15/02/19   5.00   12.4   12.4   12.3    76    8.3  16.1   NNE   4.02  30.6   NNE   10.2   12.1    9.9    8.3   581.5  0.00   0.0     0     0.00      0     0.0  0.00   0.0   0.062   0.000   13.4    61    6.1   12.8    0.08   334    1     97.7   15 
15/02/19   5.15   12.3   12.4   12.2    78    8.6  16.1     N   4.02  29.0   NNE   10.1   12.1    9.8    8.3   581.5  0.00   0.0     0     0.00      0     0.0  0.00   0.0   0.063   0.000   13.4    62    6.3   12.8    0.00   339    1     99.1   15 
15/02/19   5.30   12.3   12.3   12.2    76    8.2  16.1   NNE   4.02  30.6     N   10.1   12.0    9.8    8.2   581.5  0.00   0.0     0     0.00      0     0.0  0.00   0.0   0.063   0.000   13.4    63    6.5   12.8    0.00   344    1    100.0   15 
15/02/19   5.45   12.3   12.4   12.3    78    8.6  14.5   NNE   3.62  30.6   NNE   10.4   12.1   10.2    8.6   581.5  0.00   0.0     0     0.00      0     0.0  0.00   0.0   0.063   0.000   13.4    63    6.5   12.8    0.00   335    1     98.0   15 
15/02/19   6.00   12.1   12.3   12.1    81    8.9  14.5     N   3.62  29.0   NNE   10.2   11.9   10.1    8.5   581.5  0.00   0.0     0     0.00      0     0.0  0.00   0.0   0.065   0.000   13.4    64    6.8   12.8    0.05   341    1     99.7   15 
15/02/19   6.15   12.2   12.2   12.0    82    9.2  12.9   NNE   3.22  27.4     N   10.7   12.1   10.6    8.9   581.5  0.00   0.0     0     0.00      0     0.0  0.00   0.0   0.064   0.000   13.4    64    6.8   12.8    0.00   344    1    100.0   15 
15/02/19   6.30   11.9   12.2   11.9    83    9.1  14.5   NNE   3.62  29.0    NE   10.0   11.8    9.9    8.3   581.5  0.00   0.0     0     0.00      0     0.0  0.00   0.0   0.067   0.000   13.4    65    7.0   12.9    0.00   341    1     99.7   15 
15/02/19   6.45   11.8   11.9   11.7    84    9.2  11.3     N   2.82  22.5     N   10.6   11.7   10.5    8.8   581.5  0.00   0.0     0     0.00      0     0.0  0.00   0.0   0.068   0.000   13.4    65    7.0   12.9    0.00   349    1    100.0   15 
15/02/19   7.00   11.6   11.8   11.6    84    9.0   8.0   NNE   2.01  20.9   NNE   10.9   11.6   10.8    9.1   581.5  0.00   0.0     0     0.00      0     0.0  0.00   0.0   0.070   0.000   13.4    66    7.2   12.9    0.03   344    1    100.0   15 
15/02/19   7.15   11.6   11.7   11.5    84    9.0   8.0   NNE   2.01  20.9   NNE   10.9   11.6   10.8    9.1   584.4  0.00   0.0     1     0.02      5     0.0  0.00   0.0   0.070   0.000   13.4    66    7.2   12.9    0.00   348    1    100.0   15 
15/02/19   7.30   11.7   11.8   11.7    84    9.1  12.9   NNE   3.22  25.7    NE   10.1   11.7   10.1    8.6   584.4  0.00   0.0    10     0.22     12     0.0  0.00   0.0   0.069   0.000   13.4    66    7.2   12.9    0.00   347    1    100.0   15 
15/02/19   7.45   11.8   11.8   11.7    85    9.3  14.5   NNE   3.62  25.7    NE    9.8   11.7    9.7    8.4   584.4  0.00   0.0    24     0.52     40     0.0  0.00   0.0   0.068   0.000   13.4    67    7.4   12.9    0.00   348    1    100.0   15 
15/02/19   8.00   11.9   12.0   11.8    85    9.4  16.1   NNE   4.02  24.1   NNE    9.6   11.8    9.6    8.6   584.4  0.00   0.0    58     1.25     76     0.0  0.00   0.0   0.067   0.000   13.4    67    7.4   12.9    0.03   346    1    100.0   15 
15/02/19   8.15   11.8   12.0   11.8    85    9.4  16.1   NNE   4.02  27.4   NNE    9.6   11.8    9.5    9.1   584.4  0.00   0.0   104     2.24    132     0.0  0.00   0.0   0.068   0.000   13.4    68    7.7   12.9    0.00   350    1    100.0   15 
15/02/19   8.30   12.1   12.1   11.8    85    9.7  16.1   NNE   4.02  22.5   NNE    9.9   12.1    9.8   11.7   584.4  0.00   0.0   154     3.31    181     0.0  0.00   0.0   0.065   0.000   13.4    68    7.7   12.9    0.00   349    1    100.0   15 
15/02/19   8.45   12.4   12.4   12.1    84    9.8  16.1   NNE   4.02  29.0   NNE   10.2   12.3   10.1   13.1   584.4  0.00   0.0   210     4.52    237     0.0  0.00   0.0   0.062   0.000   13.6    68    7.8   13.1    0.00   347    1    100.0   15 
15/02/19   9.00   12.7   12.7   12.4    84   10.0  16.1   NNE   4.02  29.0   NNE   10.5   12.6   10.4   14.3   584.4  0.00   0.0   267     5.74    290     0.0  0.00   0.0   0.059   0.000   13.6    69    8.0   13.1    0.13   346    1    100.0   15 
15/02/19   9.15   12.8   12.8   12.6    83   10.0  17.7   NNE   4.43  27.4   NNE   10.4   12.7   10.3   14.6   584.4  0.00   0.0   311     6.69    329     0.0  0.00   0.0   0.057   0.000   13.6    69    8.0   13.2    0.00   345    1    100.0   15 
15/02/19   9.30   13.0   13.0   12.8    83   10.2  17.7   NNE   4.43  27.4   NNE   10.6   12.9   10.4   15.3   584.4  0.00   0.0   351     7.55    366     0.0  0.00   0.0   0.056   0.000   13.6    69    8.0   13.2    0.00   346    1    100.0   15 
15/02/19   9.45   13.1   13.1   12.9    82   10.1  19.3   NNE   4.83  29.0   NNE   10.3   12.9   10.2   15.2   584.4  0.00   0.0   385     8.28    401     0.0  0.00   0.0   0.055   0.000   13.7    70    8.3   13.2    0.00   344    1    100.0   15 
15/02/19  10.00   13.0   13.2   13.0    82   10.0  20.9   NNE   5.23  32.2   NNE   10.0   12.9    9.9   14.9   584.4  0.00   0.0   418     8.99    431     0.0  0.00   0.0   0.056   0.000   13.8    70    8.4   13.3    0.23   345    1    100.0   15 
15/02/19  10.15   13.2   13.2   13.0    82   10.2  19.3   NNE   4.83  30.6   NNE   10.4   13.1   10.3   15.7   584.4  0.00   0.0   449     9.65    464     0.0  0.00   0.0   0.054   0.000   13.8    70    8.4   13.3    0.00   336    1     98.2   15 
15/02/19  10.30   13.3   13.4   13.2    82   10.3  19.3   NNE   4.83  30.6    NE   10.7   13.2   10.6   16.1   584.4  0.00   0.0   477    10.26    487     0.0  0.00   0.0   0.052   0.000   13.8    70    8.5   13.4    0.00   342    1    100.0   15 
15/02/19  10.45   13.4   13.5   13.2    81   10.2  17.7   NNE   4.43  32.2    NE   11.1   13.3   10.9   16.7   584.4  0.00   0.0   501    10.77    512     0.0  0.00   0.0   0.051   0.000   13.9    70    8.6   13.5    0.00   339    1     99.1   15 
15/02/19  11.00   13.4   13.6   13.2    81   10.2  19.3   NNE   4.83  30.6   NNE   10.8   13.3   10.6   16.3   584.4  0.00   0.0   522    11.22    531     0.0  0.00   0.0   0.051   0.000   13.9    70    8.6   13.5    0.28   343    1    100.0   15 
15/02/19  11.15   13.6   13.7   13.4    82   10.5  17.7   NNE   4.43  30.6   NNE   11.2   13.4   11.1   17.2   584.4  0.00   0.0   540    11.61    548     0.0  0.00   0.0   0.050   0.000   14.0    70    8.6   13.6    0.00   347    1    100.0   15 
15/02/19  11.30   13.6   13.9   13.5    82   10.5  14.5   NNE   3.62  27.4    NE   11.9   13.4   11.8   18.4   584.4  0.00   0.0   557    11.98    564     0.0  0.00   0.0   0.050   0.000   14.1    70    8.7   13.7    0.00   345    1    100.0   15 
15/02/19  11.45   13.7   13.8   13.4    82   10.6  16.1   NNE   4.02  27.4    NE   11.7   13.6   11.6   18.1   584.4  0.00   0.0   571    12.28    575     0.0  0.00   0.0   0.049   0.000   14.2    69    8.6   13.7    0.00   346    1    100.0   15 
15/02/19  12.00   13.8   13.8   13.7    82   10.8  16.1   NNE   4.02  25.7   NNE   11.9   13.7   11.8   18.4   584.4  0.00   0.0   581    12.49    585     0.0  0.00   0.0   0.047   0.000   14.3    69    8.7   13.9    0.30   346    1    100.0   15 
15/02/19  12.15   13.6   13.9   13.6    82   10.6  16.1   NNE   4.02  27.4   NNE   11.6   13.5   11.5   18.2   584.4  0.00   0.0   587    12.62    591     0.0  0.00   0.0   0.049   0.000   14.6    69    8.9   14.1    0.00   347    1    100.0   15 
15/02/19  12.30   13.9   14.0   13.6    81   10.7  12.9   NNE   3.22  27.4   NNE   12.8   13.8   12.6   20.0   584.4  0.00   0.0   589    12.67    591     0.0  0.00   0.0   0.046   0.000   14.7    68    8.9   14.3    0.00   345    1    100.0   15 
15/02/19  12.45   14.1   14.1   13.8    81   10.8  12.9    NE   3.22  30.6   NNE   12.9   13.9   12.8   20.3   590.6  0.00   0.0   589    12.67    591     0.0  0.00   0.0   0.045   0.000   14.9    68    9.0   14.4    0.00   350    1    100.0   15 
15/02/19  13.00   14.0   14.1   13.6    81   10.8  14.5    NE   3.62  29.0   NNE   12.4   13.9   12.3   19.6   590.6  0.00   0.0   586    12.60    589     0.0  0.00   0.0   0.045   0.000   15.1    67    9.0   14.6    0.33   346    1    100.0   15 
15/02/19  13.15   14.0   14.2   13.9    80   10.6  16.1   NNE   4.02  29.0    NE   12.1   13.8   11.9   19.0   590.6  0.00   0.0   578    12.43    584     0.0  0.00   0.0   0.045   0.000   15.3    67    9.2   14.8    0.00   344    1    100.0   15 
15/02/19  13.30   13.8   14.2   13.8    81   10.6  17.7   NNE   4.43  30.6    NE   11.6   13.7   11.4   18.3   587.1  0.00   0.0   568    12.21    573     0.0  0.00   0.0   0.047   0.000   15.6    67    9.4   15.1    0.00   344    1    100.0   15 
15/02/19  13.45   13.9   14.1   13.7    81   10.7  17.7   NNE   4.43  33.8   NNE   11.7   13.8   11.5   18.6   587.1  0.00   0.0   556    11.96    561     0.0  0.00   0.0   0.046   0.000   15.7    66    9.4   15.3    0.00   342    1    100.0   15 
15/02/19  14.00   13.7   14.1   13.7    81   10.5  19.3   NNE   4.83  33.8    NE   11.1   13.6   10.9   17.8   587.1  0.00   0.0   541    11.63    548     0.0  0.00   0.0   0.048   0.000   16.0    66    9.6   15.6    0.33   343    1    100.0   15 
15/02/19  14.15   13.9   14.0   13.7    81   10.7  19.3   NNE   4.83  33.8   NNE   11.3   13.8   11.2   18.2   587.1  0.00   0.0   521    11.20    531     0.0  0.00   0.0   0.046   0.000   16.2    66    9.8   15.7    0.00   340    1     99.4   15 
15/02/19  14.30   13.5   13.9   13.5    82   10.5  22.5   NNE   5.63  33.8   NNE   10.4   13.4   10.3   16.8   587.1  0.00   0.0   498    10.71    510     0.0  0.00   0.0   0.050   0.000   16.3    66   10.0   15.9    0.00   341    1     99.7   15 
15/02/19  14.45   13.7   13.8   13.5    82   10.6  17.7   NNE   4.43  32.2    NE   11.3   13.6   11.2   18.3   587.1  0.00   0.0   471    10.13    485     0.0  0.00   0.0   0.049   0.000   16.5    65    9.9   16.1    0.00   338    1     98.8   15 
15/02/19  15.00   13.6   13.8   13.4    82   10.6  17.7   NNE   4.43  32.2   NNE   11.3   13.5   11.2   18.2   587.1  0.00   0.0   443     9.53    455     0.0  0.00   0.0   0.049   0.000   16.7    65   10.1   16.3    0.28   340    1     99.4   15 
15/02/19  15.15   13.6   13.9   13.6    82   10.5  17.7   NNE   4.43  29.0   NNE   11.2   13.4   11.1   17.8   587.1  0.00   0.0   412     8.86    427     0.0  0.00   0.0   0.050   0.000   16.8    65   10.2   16.4    0.00   338    1     98.8   15 
15/02/19  15.30   13.5   13.7   13.3    83   10.7  20.9   NNE   5.23  32.2   NNE   10.6   13.4   10.5   16.5   587.1  0.00   0.0   377     8.11    392     0.0  0.00   0.0   0.050   0.000   16.8    65   10.2   16.4    0.00   343    1    100.0   15 
15/02/19  15.45   13.4   13.6   13.4    83   10.6  19.3   NNE   4.83  32.2   NNE   10.8   13.3   10.7   16.6   587.1  0.00   0.0   342     7.35    360     0.0  0.00   0.0   0.051   0.000   16.6    65   10.0   16.2    0.00   336    1     98.2   15 
15/02/19  16.00   13.5   13.5   13.3    83   10.7  16.1   NNE   4.02  38.6    NE   11.5   13.4   11.4   13.1   587.1  0.00   0.0   304     6.54    322     0.0  0.00   0.0   0.050   0.000   16.2    66    9.9   15.8    0.23   336    1     98.2   15 
15/02/19  16.15   13.3   13.5   13.2    84   10.6  20.9   NNE   5.23  35.4   NNE   10.3   13.2   10.3   11.4   587.1  0.00   0.0   264     5.68    283     0.0  0.00   0.0   0.053   0.000   16.0    66    9.6   15.6    0.00   342    1    100.0   15 
15/02/19  16.30   13.3   13.4   13.3    84   10.7  16.1   NNE   4.02  32.2   NNE   11.3   13.3   11.2   11.9   587.1  0.00   0.0   209     4.49    237     0.0  0.00   0.0   0.052   0.000   15.7    67    9.6   15.3    0.00   340    1     99.4   15 
15/02/19  16.45   13.2   13.3   13.2    84   10.6  12.9   NNE   3.22  32.2   NNE   11.9   13.2   11.9   12.1   587.1  0.00   0.0   152     3.27    178     0.0  0.00   0.0   0.053   0.000   15.6    67    9.4   15.1    0.00   341    1     99.7   15 
15/02/19  17.00   13.1   13.2   13.1    85   10.6  16.1   NNE   4.02  33.8   NNE   11.0   13.1   10.9   10.5   587.1  0.00   0.0   100     2.15    125     0.0  0.00   0.0   0.054   0.000   15.4    68    9.5   15.0    0.13   343    1    100.0   15 
15/02/19  17.15   12.9   13.1   12.9    86   10.7  14.5   NNE   3.62  32.2   NNE   11.2   12.9   11.2   10.2   587.1  0.00   0.0    53     1.14     76     0.0  0.00   0.0   0.056   0.000   15.3    68    9.4   14.8    0.00   348    1    100.0   15 
15/02/19  17.30   12.7   12.9   12.7    87   10.6  17.7   NNE   4.43  37.0   NNE   10.2   12.7   10.2    9.0   587.1  0.00   0.0    17     0.37     21     0.0  0.00   0.0   0.059   0.000   15.1    69    9.5   14.7    0.00   344    1    100.0   15 
15/02/19  17.45   12.6   12.7   12.5    88   10.6  16.1     N   4.02  27.4   NNE   10.4   12.6   10.4    9.0   587.1  0.00   0.0     9     0.19     12     0.0  0.00   0.0   0.060   0.000   15.1    69    9.4   14.6    0.00   345    1    100.0   15 
15/02/19  18.00   12.5   12.6   12.5    88   10.6  17.7   NNE   4.43  32.2     N   10.0   12.5   10.0    8.6   587.1  0.00   0.0     1     0.02      5     0.0  0.00   0.0   0.061   0.000   14.9    69    9.3   14.5    0.03   347    1    100.0   15 
15/02/19  18.15   12.4   12.5   12.4    88   10.5  14.5     N   3.62  27.4     N   10.6   12.4   10.6    9.1   587.1  0.00   0.0     0     0.00      0     0.0  0.00   0.0   0.061   0.000   14.9    70    9.5   14.5    0.00   348    1    100.0   15 
15/02/19  18.30   12.4   12.4   12.4    88   10.5   9.7     N   2.41  25.7    NE   11.6   12.4   11.6    9.8   587.1  0.00   0.0     0     0.00      0     0.0  0.00   0.0   0.062   0.000   14.8    70    9.4   14.4    0.00   348    1    100.0   15 
15/02/19  18.45   12.4   12.5   12.4    88   10.5  12.9     N   3.22  29.0     N   11.0   12.4   11.0    9.4   587.1  0.00   0.0     0     0.00      0     0.0  0.00   0.0   0.061   0.000   14.8    70    9.4   14.4    0.00   349    1    100.0   15 
15/02/19  19.00   12.4   12.5   12.4    88   10.5  14.5   NNE   3.62  27.4   NNE   10.6   12.4   10.6    9.1   587.1  0.00   0.0     0     0.00      0     0.0  0.00   0.0   0.061   0.000   14.7    70    9.3   14.3    0.03   348    1    100.0   15 
15/02/19  19.15   12.5   12.6   12.4    88   10.6  14.5   NNE   3.62  27.4     N   10.7   12.5   10.7    9.2   587.1  0.00   0.0     0     0.00      0     0.0  0.00   0.0   0.061   0.000   14.6    71    9.4   14.2    0.00   351    1    100.0   15 
15/02/19  19.30   12.3   12.6   12.3    89   10.5   9.7   NNE   2.41  25.7    NE   11.4   12.3   11.4    9.7   587.1  0.00   0.0     0     0.00      0     0.0  0.00   0.0   0.063   0.000   14.6    71    9.4   14.2    0.00   350    1    100.0   15 
15/02/19  19.45   12.2   12.3   12.1    89   10.5   6.4    NE   1.61  20.9    NE   11.9   12.3   12.0   10.3   587.1  0.00   0.0     0     0.00      0     0.0  0.00   0.0   0.064   0.000   14.6    71    9.4   14.2    0.00   351    1    100.0   15 
15/02/19  20.00   12.2   12.3   12.2    89   10.4   8.0   NNE   2.01  19.3    NE   11.6   12.2   11.6    9.9   587.1  0.00   0.0     0     0.00      0     0.0  0.00   0.0   0.064   0.000   14.6    71    9.4   14.2    0.03   348    1    100.0   15 
15/02/19  20.15   12.0   12.2   12.0    90   10.4   6.4   NNE   1.61  19.3   NNE   11.7   12.1   11.7   10.0   587.1  0.00   0.0     0     0.00      0     0.0  0.00   0.0   0.066   0.000   14.6    71    9.4   14.2    0.00   351    1    100.0   15 
15/02/19  20.30   12.2   12.2   12.0    90   10.6   6.4    NE   1.61  17.7    NE   11.9   12.2   11.9   10.3   587.1  0.00   0.0     0     0.00      0     0.0  0.00   0.0   0.064   0.000   14.6    71    9.4   14.2    0.00   351    1    100.0   15 
15/02/19  20.45   12.0   12.2   12.0    90   10.4   6.4   NNE   1.61  16.1    NE   11.7   12.1   11.7   10.0   587.1  0.00   0.0     0     0.00      0     0.0  0.00   0.0   0.066   0.000   14.4    71    9.2   14.1    0.00   351    1    100.0   15 
15/02/19  21.00   12.1   12.1   12.0    90   10.5   8.0    NE   2.01  17.7    NE   11.4   12.1   11.4    9.7   587.1  0.00   0.0     0     0.00      0     0.0  0.00   0.0   0.065   0.000   14.4    71    9.2   14.1    0.00   350    1    100.0   15 
15/02/19  21.15   12.2   12.3   11.9    90   10.6   9.7   NNE   2.41  20.9   NNE   11.3   12.2   11.3    9.7   587.1  0.00   0.0     0     0.00      0     0.0  0.00   0.0   0.064   0.000   14.4    72    9.5   14.1    0.03   351    1    100.0   15 
15/02/19  21.30   12.0   12.2   11.9    90   10.4   8.0   NNE   2.01  17.7   NNE   11.3   12.1   11.4    9.7   587.1  0.00   0.0     0     0.00      0     0.0  0.00   0.0   0.066   0.000   14.3    72    9.3   13.9    0.00   351    1    100.0   15 
15/02/19  21.45   11.9   11.9   11.6    90   10.3   4.8   NNE   1.21  11.3   NNE   11.9   11.9   11.9   10.2   587.1  0.00   0.0     0     0.00      0     0.0  0.00   0.0   0.067   0.000   14.3    72    9.3   13.9    0.00   350    1    100.0   15 
15/02/19  22.00   11.8   12.1   11.8    90   10.2   4.8   NNE   1.21   9.7   NNE   11.8   11.9   11.9   10.2   587.1  0.00   0.0     0     0.00      0     0.0  0.00   0.0   0.068   0.000   14.3    72    9.3   13.9    0.00   351    1    100.0   15 
15/02/19  22.15   11.1   11.9   11.1    90    9.5   1.6   NNE   0.40  11.3   NNE   11.1   11.2   11.2    9.5   587.1  0.00   0.0     0     0.00      0     0.0  0.00   0.0   0.075   0.000   14.3    72    9.3   13.9    0.00   350    1    100.0   15 
15/02/19  22.30   10.8   11.2   10.8    90    9.3   0.0   NNE   0.00   6.4   NNE   10.8   10.9   10.9    9.2   587.1  0.00   0.0     0     0.00      0     0.0  0.00   0.0   0.078   0.000   14.3    71    9.1   13.9    0.00   350    1    100.0   15 
15/02/19  22.45   10.5   10.8   10.4    90    8.9   1.6   NNE   0.40  20.9     E   10.5   10.6   10.6    8.9   587.1  0.00   0.0     0     0.00      0     0.0  0.00   0.0   0.082   0.000   14.3    71    9.1   13.9    0.00   351    1    100.0   15 
15/02/19  23.00   13.7   13.7   10.7    62    6.5   4.8   ENE   1.21  17.7   ESE   13.7   13.0   13.0   11.1   587.1  0.00   0.0     0     0.00      0     0.0  0.00   0.0   0.049   0.000   14.3    71    9.1   13.9    0.00   348    1    100.0   15 
15/02/19  23.15   12.9   13.7   12.9    57    4.6   3.2   ENE   0.80  14.5   ENE   12.9   12.2   12.2   10.2   587.1  0.00   0.0     0     0.00      0     0.0  0.00   0.0   0.056   0.000   14.3    70    8.9   13.8    0.00   348    1    100.0   15 
15/02/19  23.30   13.2   13.2   12.7    53    3.8   0.0   ENE   0.00   8.0   ENE   13.2   12.2   12.2   10.2   587.1  0.00   0.0     0     0.00      0     0.0  0.00   0.0   0.054   0.000   14.3    70    8.9   13.8    0.00   350    1    100.0   15 
15/02/19  23.45   12.8   13.2   12.4    53    3.5   0.0   ENE   0.00   6.4   ENE   12.8   11.9   11.9    9.9   587.1  0.00   0.0     0     0.00      0     0.0  0.00   0.0   0.057   0.000   14.3    69    8.7   13.8    0.00   352    1    100.0   15 
16/02/19  00.00   12.3   12.9   11.9    54    3.3   0.0   ENE   0.00   6.4   ENE   12.3   11.5   11.5    9.5   587.1  0.00   0.0     0     0.00      0     0.0  0.00   0.0   0.062   0.000   14.3    69    8.7   13.8    0.03   349    1    100.0   15 
16/02/19   0.15   10.9   12.2   10.7    61    3.7   1.6   ENE   0.40   8.0   ENE   10.9   10.4   10.4    8.4   587.1  0.00   0.0     0     0.00      0     0.0  0.00   0.0   0.078   0.000   14.2    68    8.3   13.7    0.00   349    1    100.0   15 
16/02/19   0.30   11.3   11.4   10.9    57    3.1   0.0   ENE   0.00   8.0   ENE   11.3   10.7   10.7    8.7   587.1  0.00   0.0     0     0.00      0     0.0  0.00   0.0   0.073   0.000   14.2    67    8.1   13.7    0.00   349    1    100.0   15 
16/02/19   0.45   10.3   11.3   10.3    60    2.9   1.6   ENE   0.40   8.0   ENE   10.3    9.8    9.8    7.8   587.1  0.00   0.0     0     0.00      0     0.0  0.00   0.0   0.083   0.000   14.1    66    7.8   13.6    0.00   349    1    100.0   15 
16/02/19   1.00   10.8   10.8   10.0    58    2.8   1.6   ENE   0.40   9.7   ENE   10.8   10.2   10.2    8.2   587.1  0.00   0.0     0     0.00      0     0.0  0.00   0.0   0.079   0.000   14.1    65    7.6   13.6    0.03   347    1    100.0   15 
16/02/19   1.15   11.3   11.4   10.6    55    2.6   1.6   ENE   0.40   8.0   ENE   11.3   10.6   10.6    8.6   587.1  0.00   0.0     0     0.00      0     0.0  0.00   0.0   0.073   0.000   14.0    65    7.5   13.4    0.00   350    1    100.0   15 
16/02/19   1.30   10.6   11.4   10.6    57    2.4   0.0   ENE   0.00   4.8   ENE   10.6   10.0   10.0    7.9   587.1  0.00   0.0     0     0.00      0     0.0  0.00   0.0   0.081   0.000   14.0    64    7.3   13.4    0.00   348    1    100.0   15 
16/02/19   1.45    9.8   10.8    9.8    61    2.6   4.8   ENE   1.21   8.0   ENE    9.6    9.3    9.1    7.1   587.1  0.00   0.0     0     0.00      0     0.0  0.00   0.0   0.089   0.000   14.0    63    7.1   13.4    0.00   348    1    100.0   15 
16/02/19   2.00    8.4    9.8    8.4    65    2.2   1.6   ENE   0.40   8.0   ENE    8.4    8.1    8.1    6.0   587.1  0.00   0.0     0     0.00      0     0.0  0.00   0.0   0.103   0.000   13.9    62    6.8   13.3    0.03   348    1    100.0   15 
16/02/19   2.15    8.7    8.9    8.2    65    2.4   1.6   ENE   0.40   6.4   ENE    8.7    8.3    8.3    6.2   587.1  0.00   0.0     0     0.00      0     0.0  0.00   0.0   0.101   0.000   13.9    62    6.8   13.3    0.00   349    1    100.0   15 
16/02/19   2.30    8.4    8.8    8.1    67    2.6   1.6   ENE   0.40   6.4   ENE    8.4    8.1    8.1    6.0   587.1  0.00   0.0     0     0.00      0     0.0  0.00   0.0   0.104   0.000   13.9    61    6.5   13.3    0.00   349    1    100.0   15 
16/02/19   2.45    7.4    9.1    7.4    69    2.1   1.6   ENE   0.40   8.0   ENE    7.4    7.2    7.2    5.1   587.1  0.00   0.0     0     0.00      0     0.0  0.00   0.0   0.113   0.000   13.8    60    6.2   13.1    0.00   348    1    100.0   15 
16/02/19   3.00    6.6    7.5    6.6    71    1.7   0.0   ENE   0.00   1.6   ENE    6.6    6.3    6.3    4.2   587.1  0.00   0.0     0     0.00      0     0.0  0.00   0.0   0.123   0.000   13.8    60    6.2   13.1    0.03   349    1    100.0   15 
16/02/19   3.15    5.6    6.5    5.6    76    1.7   0.0   ENE   0.00   6.4   ENE    5.6    5.3    5.3    3.2   587.1  0.00   0.0     0     0.00      0     0.0  0.00   0.0   0.133   0.000   13.8    59    5.9   13.0    0.00   349    1    100.0   15 
16/02/19   3.30    6.2    6.2    5.3    77    2.4   1.6   ENE   0.40   8.0   ENE    6.2    5.9    5.9    3.9   587.1  0.00   0.0     0     0.00      0     0.0  0.00   0.0   0.127   0.000   13.8    58    5.7   13.0    0.00   350    1    100.0   15 
16/02/19   3.45    6.8    7.4    5.8    75    2.7   0.0   ENE   0.00   9.7   ENE    6.8    6.6    6.6    4.5   587.1  0.00   0.0     0     0.00      0     0.0  0.00   0.0   0.120   0.000   13.7    58    5.5   12.9    0.00   348    1    100.0   15 
16/02/19   4.00    6.0    8.9    6.0    73    1.5   1.6   ENE   0.40   6.4   ENE    6.0    5.7    5.7    3.6   587.1  0.00   0.0     0     0.00      0     0.0  0.00   0.0   0.128   0.000   13.7    58    5.5   12.9    0.03   350    1    100.0   15 
16/02/19   4.15    7.2    7.2    5.7    74    2.9   0.0   ENE   0.00   4.8   ENE    7.2    7.0    7.0    5.0   587.1  0.00   0.0     0     0.00      0     0.0  0.00   0.0   0.116   0.000   13.6    57    5.2   12.8    0.00   346    1    100.0   15 
16/02/19   4.30    5.9    7.3    5.3    75    1.8   1.6   ENE   0.40   4.8   ENE    5.9    5.7    5.7    3.6   587.1  0.00   0.0     0     0.00      0     0.0  0.00   0.0   0.130   0.000   13.6    57    5.2   12.8    0.00   348    1    100.0   15 
16/02/19   4.45    6.3    7.9    5.9    71    1.5   0.0   ENE   0.00   4.8   ENE    6.3    6.1    6.1    3.9   587.1  0.00   0.0     0     0.00      0     0.0  0.00   0.0   0.125   0.000   13.6    56    5.0   12.8    0.00   347    1    100.0   15 
16/02/19   5.00    5.2    6.3    5.2    75    1.1   0.0   ENE   0.00   1.6   ENE    5.2    5.0    5.0    2.9   587.1  0.00   0.0     0     0.00      0     0.0  0.00   0.0   0.137   0.000   13.6    56    4.9   12.7    0.03   347    1    100.0   15 
16/02/19   5.15    5.3    5.5    5.0    77    1.6   0.0   ENE   0.00   6.4   ENE    5.3    5.1    5.1    3.0   587.1  0.00   0.0     0     0.00      0     0.0  0.00   0.0   0.135   0.000   13.6    56    4.9   12.7    0.00   350    1    100.0   15 
16/02/19   5.30    5.8    5.8    5.3    76    1.9   0.0   ENE   0.00   1.6   ENE    5.8    5.6    5.6    3.6   587.1  0.00   0.0     0     0.00      0     0.0  0.00   0.0   0.130   0.000   13.6    56    4.9   12.7    0.00   348    1    100.0   15 
16/02/19   5.45    5.1    5.8    4.8    78    1.5   0.0   ---   0.00   0.0   ---    5.1    4.9    4.9    2.8   587.1  0.00   0.0     0     0.00      0     0.0  0.00   0.0   0.138   0.000   13.4    55    4.6   12.6    0.00   351    1    100.0   15 
16/02/19   6.00    5.9    5.9    4.9    79    2.6   0.0   ---   0.00   0.0   ---    5.9    5.8    5.8    3.7   585.7  0.00   0.0     0     0.00      0     0.0  0.00   0.0   0.129   0.000   13.4    56    4.8   12.6    0.03   349    1    100.0   15 
16/02/19   6.15    5.3    5.9    5.3    80    2.2   0.0   ---   0.00   0.0   ---    5.3    5.2    5.2    3.1   585.7  0.00   0.0     0     0.00      0     0.0  0.00   0.0   0.135   0.000   13.4    56    4.8   12.6    0.00   345    1    100.0   15 
16/02/19   6.30    4.6    5.5    4.6    82    1.8   0.0   ---   0.00   0.0   ---    4.6    4.4    4.4    2.4   585.7  0.00   0.0     0     0.00      0     0.0  0.00   0.0   0.143   0.000   13.4    56    4.8   12.6    0.00   352    1    100.0   15 
16/02/19   6.45    4.5    5.2    4.4    84    2.0   0.0   ---   0.00   0.0   ---    4.5    4.4    4.4    2.3   585.7  0.00   0.0     0     0.00      0     0.0  0.00   0.0   0.144   0.000   13.4    56    4.8   12.6    0.00   349    1    100.0   15 
16/02/19   7.00    3.9    4.9    3.8    85    1.6   0.0   ---   0.00   0.0   ---    3.9    3.8    3.8    1.7   585.7  0.00   0.0     0     0.00      0     0.0  0.00   0.0   0.150   0.000   13.3    56    4.7   12.4    0.00   348    1    100.0   15 
16/02/19   7.15    4.1    4.2    3.8    86    2.0   0.0   ---   0.00   0.0   ---    4.1    4.0    4.0    1.9   585.7  0.00   0.0     2     0.04      7     0.0  0.00   0.0   0.148   0.000   13.3    56    4.7   12.4    0.00   348    1    100.0   15 
16/02/19   7.30    3.3    4.5    3.3    86    1.2   0.0   ---   0.00   0.0   ---    3.3    3.2    3.2    1.3   585.7  0.00   0.0    11     0.24     14     0.0  0.00   0.0   0.156   0.000   13.3    55    4.4   12.4    0.00   350    1    100.0   15 
16/02/19   7.45    3.2    3.5    3.2    87    1.3   1.6   ENE   0.40   8.0   ENE    3.2    3.1    3.1    1.3   585.7  0.00   0.0    28     0.60     46     0.0  0.00   0.0   0.157   0.000   13.2    55    4.4   12.3    0.00   352    1    100.0   15 
16/02/19   8.00    3.8    4.3    3.2    87    1.8   1.6   ENE   0.40   8.0   ENE    3.8    3.7    3.7    2.4   585.7  0.00   0.0    65     1.40     84     0.0  0.00   0.0   0.152   0.000   13.2    55    4.4   12.3    0.00   351    1    100.0   15 
16/02/19   8.15    4.4    4.4    3.7    87    2.4   0.0   ENE   0.00   1.6   ENE    4.4    4.3    4.3    3.5   585.7  0.00   0.0   107     2.30    130     0.0  0.00   0.0   0.145   0.000   13.2    55    4.4   12.3    0.00   346    1    100.0   15 
16/02/19   8.30    5.6    5.6    4.4    87    3.6   0.0   ---   0.00   0.0   ---    5.6    5.6    5.6    7.8   585.7  0.00   0.0   169     3.63    230     0.0  0.00   0.0   0.133   0.000   13.2    55    4.4   12.3    0.00   348    1    100.0   15 
16/02/19   8.45    6.8    6.8    5.6    85    4.4   0.0   ENE   0.00   1.6   ENE    6.8    6.7    6.7   10.0   585.7  0.00   0.0   217     4.67    241     0.0  0.00   0.0   0.120   0.000   13.2    56    4.6   12.4    0.00   352    1    100.0   15 
16/02/19   9.00    8.3    8.3    6.8    83    5.6   0.0   ENE   0.00   1.6   ENE    8.3    8.3    8.3   12.6   585.7  0.00   0.0   272     5.85    297     0.0  0.00   0.0   0.104   0.000   13.3    56    4.7   12.4    0.08   350    1    100.0   15 
16/02/19   9.15    9.8    9.8    8.3    80    6.5   0.0   ---   0.00   0.0   ---    9.8    9.8    9.8   14.9   585.7  0.00   0.0   317     6.82    355     0.0  0.00   0.0   0.089   0.000   13.3    57    4.9   12.4    0.00   347    1    100.0   15 
16/02/19   9.30   11.4   11.4    9.8    77    7.6   0.0   ---   0.00   0.0   ---   11.4   11.2   11.2   16.9  1019.1  0.00   0.0   357     7.68    374     0.0  0.00   0.0   0.072   0.000   13.4    57    5.0   12.6    0.00   351    1    100.0   15 
16/02/19   9.45   13.3   13.3   11.4    69    7.8   0.0   ---   0.00   0.0   ---   13.3   12.9   12.9   18.9  1019.1  0.00   0.0   395     8.49    411     0.0  0.00   0.0   0.052   0.000   13.4    58    5.3   12.7    0.00   346    1    100.0   15 
16/02/19  10.00   13.7   13.7   13.3    65    7.2   0.0     E   0.00   1.6     E   13.7   13.1   13.1   19.4  1019.1  0.00   0.0   427     9.18    441     0.0  0.00   0.0   0.049   0.000   13.6    58    5.4   12.8    0.18   349    1    100.0   15 
16/02/19  10.15   13.8   13.9   13.7    61    6.4   0.0     E   0.00   6.4     E   13.8   13.1   13.1   19.6  1019.1  0.00   0.0   458     9.85    471     0.0  0.00   0.0   0.047   0.000   13.7    59    5.8   12.9    0.00   350    1    100.0   15 
16/02/19  10.30   13.9   13.9   13.5    61    6.5   1.6     S   0.40   6.4    SW   13.9   13.2   13.2   19.9  1019.1  0.00   0.0   485    10.43    497     0.0  0.00   0.0   0.046   0.000   13.8    59    5.9   13.0    0.00   348    1    100.0   15 
© www.elbaexplorer.com